createdAt,value
2018-07-10T00:00:23.700Z,16.97
2018-07-10T00:00:54.932Z,15.03
2018-07-10T00:01:26.163Z,15.80
2018-07-10T00:01:57.419Z,15.70
2018-07-10T00:02:28.614Z,14.47
2018-07-10T00:02:59.801Z,14.58
2018-07-10T00:03:30.992Z,13.32
2018-07-10T00:04:02.169Z,14.83
2018-07-10T00:04:33.448Z,16.20
2018-07-10T00:05:04.632Z,15.55
2018-07-10T00:05:35.866Z,14.83
2018-07-10T00:06:07.112Z,15.65
2018-07-10T00:06:38.297Z,15.18
2018-07-10T00:07:09.471Z,15.20
2018-07-10T00:07:40.650Z,16.50
2018-07-10T00:08:11.839Z,15.18
2018-07-10T00:08:43.101Z,14.98
2018-07-10T00:09:14.272Z,15.68
2018-07-10T00:09:45.468Z,15.30
2018-07-10T00:10:16.652Z,15.78
2018-07-10T00:10:47.892Z,15.55
2018-07-10T00:11:19.134Z,15.58
2018-07-10T00:11:50.375Z,15.60
2018-07-10T00:12:21.625Z,16.45
2018-07-10T00:12:52.789Z,14.95
2018-07-10T00:13:24.021Z,14.70
2018-07-10T00:13:55.196Z,13.83
2018-07-10T00:14:26.368Z,13.80
2018-07-10T00:14:57.540Z,14.55
2018-07-10T00:15:28.720Z,13.40
2018-07-10T00:15:59.905Z,14.78
2018-07-10T00:16:31.083Z,14.50
2018-07-10T00:17:02.272Z,14.78
2018-07-10T00:17:33.512Z,13.88
2018-07-10T00:18:04.707Z,14.45
2018-07-10T00:18:35.979Z,14.25
2018-07-10T00:19:07.168Z,14.07
2018-07-10T00:19:38.348Z,13.70
2018-07-10T00:20:09.525Z,12.55
2018-07-10T00:20:40.762Z,13.22
2018-07-10T00:21:11.949Z,12.03
2018-07-10T00:21:43.130Z,12.80
2018-07-10T00:22:14.311Z,13.15
2018-07-10T00:22:45.589Z,13.03
2018-07-10T00:23:16.765Z,13.10
2018-07-10T00:23:47.940Z,14.03
2018-07-10T00:24:19.164Z,14.33
2018-07-10T00:24:50.396Z,13.20
2018-07-10T00:25:21.607Z,14.10
2018-07-10T00:25:52.796Z,13.62
2018-07-10T00:26:23.969Z,13.43
2018-07-10T00:26:55.147Z,14.43
2018-07-10T00:27:26.334Z,13.58
2018-07-10T00:27:57.561Z,14.20
2018-07-10T00:28:28.741Z,13.40
2018-07-10T00:28:59.966Z,13.80
2018-07-10T00:29:31.161Z,13.65
2018-07-10T00:30:02.393Z,14.30
2018-07-10T00:30:33.589Z,14.35
2018-07-10T00:31:04.756Z,13.62
2018-07-10T00:31:35.991Z,14.55
2018-07-10T00:32:07.233Z,14.87
2018-07-10T00:32:38.422Z,15.30
2018-07-10T00:33:09.629Z,15.23
2018-07-10T00:33:40.797Z,15.15
2018-07-10T00:34:12.006Z,14.07
2018-07-10T00:34:43.184Z,14.98
2018-07-10T00:35:14.366Z,14.43
2018-07-10T00:35:45.599Z,15.43
2018-07-10T00:36:16.786Z,15.48
2018-07-10T00:36:47.962Z,14.10
2018-07-10T00:37:19.188Z,13.70
2018-07-10T00:37:50.408Z,15.00
2018-07-10T00:38:21.600Z,14.65
2018-07-10T00:38:52.765Z,14.93
2018-07-10T00:39:23.980Z,14.40
2018-07-10T00:39:55.156Z,13.18
2018-07-10T00:40:26.332Z,14.05
2018-07-10T00:40:57.508Z,13.72
2018-07-10T00:41:28.687Z,14.15
2018-07-10T00:41:59.868Z,13.35
2018-07-10T00:42:33.167Z,12.78
2018-07-10T00:43:04.359Z,13.70
2018-07-10T00:43:35.617Z,12.43
2018-07-10T00:44:06.926Z,13.15
2018-07-10T00:44:38.100Z,13.30
2018-07-10T00:45:09.277Z,13.13
2018-07-10T00:45:40.464Z,13.13
2018-07-10T00:46:11.637Z,13.85
2018-07-10T00:46:42.809Z,12.28
2018-07-10T00:47:14.033Z,13.60
2018-07-10T00:47:45.220Z,13.55
2018-07-10T00:48:17.132Z,12.65
2018-07-10T00:48:49.148Z,13.20
2018-07-10T00:49:20.330Z,12.93
2018-07-10T00:49:51.561Z,12.63
2018-07-10T00:50:22.768Z,12.30
2018-07-10T00:50:53.944Z,12.33
2018-07-10T00:51:25.152Z,12.05
2018-07-10T00:51:56.328Z,11.65
2018-07-10T00:52:27.504Z,11.97
2018-07-10T00:52:58.700Z,11.78
2018-07-10T00:53:30.878Z,11.53
2018-07-10T00:54:02.104Z,12.00
2018-07-10T00:54:33.282Z,12.58
2018-07-10T00:55:04.452Z,11.83
2018-07-10T00:55:35.629Z,11.18
2018-07-10T00:56:06.878Z,11.10
2018-07-10T00:56:38.117Z,10.82
2018-07-10T00:57:09.354Z,11.90
2018-07-10T00:57:40.590Z,11.25
2018-07-10T00:58:11.788Z,11.15
2018-07-10T00:58:42.967Z,10.55
2018-07-10T00:59:14.189Z,11.10
2018-07-10T00:59:45.384Z,11.10
2018-07-10T01:00:16.553Z,10.72
2018-07-10T01:00:48.395Z,10.13
2018-07-10T01:01:19.583Z,10.82
2018-07-10T01:01:50.762Z,11.25
2018-07-10T01:02:21.956Z,11.48
2018-07-10T01:02:53.197Z,10.90
2018-07-10T01:03:24.392Z,10.78
2018-07-10T01:03:55.575Z,10.30
2018-07-10T01:04:26.869Z,10.60
2018-07-10T01:04:58.708Z,10.55
2018-07-10T01:05:29.881Z,10.85
2018-07-10T01:06:01.062Z,10.65
2018-07-10T01:06:32.238Z,10.55
2018-07-10T01:07:03.476Z,10.63
2018-07-10T01:07:34.665Z,10.25
2018-07-10T01:08:05.860Z,10.08
2018-07-10T01:08:37.033Z,10.35
2018-07-10T01:09:08.220Z,9.73
2018-07-10T01:09:39.483Z,10.72
2018-07-10T01:10:10.729Z,10.23
2018-07-10T01:10:41.916Z,9.08
2018-07-10T01:11:13.088Z,9.25
2018-07-10T01:11:44.265Z,10.28
2018-07-10T01:12:15.484Z,9.18
2018-07-10T01:12:46.709Z,10.82
2018-07-10T01:13:17.912Z,10.23
2018-07-10T01:13:49.088Z,9.63
2018-07-10T01:14:20.323Z,10.13
2018-07-10T01:14:51.604Z,10.60
2018-07-10T01:15:22.831Z,10.00
2018-07-10T01:15:54.018Z,9.53
2018-07-10T01:16:25.210Z,9.83
2018-07-10T01:16:56.380Z,10.30
2018-07-10T01:17:27.666Z,9.28
2018-07-10T01:17:58.852Z,9.83
2018-07-10T01:18:30.033Z,9.98
2018-07-10T01:19:01.271Z,9.85
2018-07-10T01:19:32.421Z,9.75
2018-07-10T01:20:03.610Z,10.20
2018-07-10T01:20:34.827Z,9.98
2018-07-10T01:21:06.017Z,10.10
2018-07-10T01:21:37.249Z,9.90
2018-07-10T01:22:08.484Z,9.93
2018-07-10T01:22:39.676Z,9.23
2018-07-10T01:23:10.921Z,10.13
2018-07-10T01:23:42.105Z,10.15
2018-07-10T01:24:13.284Z,10.75
2018-07-10T01:24:44.454Z,9.58
2018-07-10T01:25:15.640Z,9.10
2018-07-10T01:25:46.879Z,8.60
2018-07-10T01:26:18.053Z,9.23
2018-07-10T01:26:49.285Z,9.23
2018-07-10T01:27:20.529Z,9.45
2018-07-10T01:27:51.726Z,9.28
2018-07-10T01:28:22.907Z,9.03
2018-07-10T01:28:54.089Z,9.60
2018-07-10T01:29:25.267Z,9.50
2018-07-10T01:29:56.446Z,9.83
2018-07-10T01:30:27.664Z,9.70
2018-07-10T01:30:58.896Z,9.25
2018-07-10T01:31:30.091Z,10.28
2018-07-10T01:32:01.277Z,9.60
2018-07-10T01:32:32.453Z,9.63
2018-07-10T01:33:03.681Z,8.78
2018-07-10T01:33:34.966Z,9.00
2018-07-10T01:34:06.164Z,9.23
2018-07-10T01:34:37.379Z,8.75
2018-07-10T01:35:08.576Z,9.03
2018-07-10T01:35:39.857Z,9.15
2018-07-10T01:36:11.041Z,9.28
2018-07-10T01:36:42.277Z,9.58
2018-07-10T01:37:13.470Z,9.28
2018-07-10T01:37:44.662Z,8.73
2018-07-10T01:38:15.843Z,9.08
2018-07-10T01:38:47.013Z,8.60
2018-07-10T01:39:18.202Z,9.43
2018-07-10T01:39:49.390Z,8.50
2018-07-10T01:40:20.653Z,9.33
2018-07-10T01:40:51.831Z,7.78
2018-07-10T01:41:23.057Z,8.68
2018-07-10T01:41:54.254Z,8.83
2018-07-10T01:42:25.505Z,8.58
2018-07-10T01:42:56.801Z,8.78
2018-07-10T01:43:28.041Z,9.08
2018-07-10T01:43:59.278Z,8.90
2018-07-10T01:44:30.473Z,8.05
2018-07-10T01:45:01.713Z,7.80
2018-07-10T01:45:32.949Z,7.87
2018-07-10T01:46:04.133Z,8.70
2018-07-10T01:46:35.384Z,8.23
2018-07-10T01:47:06.620Z,7.60
2018-07-10T01:47:37.858Z,7.75
2018-07-10T01:48:09.141Z,7.75
2018-07-10T01:48:40.324Z,7.20
2018-07-10T01:49:11.500Z,7.37
2018-07-10T01:49:42.676Z,7.30
2018-07-10T01:50:13.903Z,7.12
2018-07-10T01:50:45.078Z,7.45
2018-07-10T01:51:16.267Z,7.90
2018-07-10T01:51:47.506Z,7.62
2018-07-10T01:52:18.703Z,7.25
2018-07-10T01:52:49.883Z,7.35
2018-07-10T01:53:21.056Z,7.58
2018-07-10T01:53:52.259Z,7.37
2018-07-10T01:54:23.493Z,7.45
2018-07-10T01:54:54.725Z,7.90
2018-07-10T01:55:26.001Z,7.45
2018-07-10T01:55:57.192Z,7.78
2018-07-10T01:56:28.382Z,7.70
2018-07-10T01:56:59.593Z,7.60
2018-07-10T01:57:30.826Z,7.55
2018-07-10T01:58:02.061Z,7.42
2018-07-10T01:58:33.262Z,6.83
2018-07-10T01:59:04.493Z,7.35
2018-07-10T01:59:35.675Z,7.85
2018-07-10T02:00:06.840Z,7.92
2018-07-10T02:00:38.117Z,7.62
2018-07-10T02:01:09.405Z,7.47
2018-07-10T02:01:40.588Z,7.87
2018-07-10T02:02:11.764Z,6.80
2018-07-10T02:02:43.664Z,7.53
2018-07-10T02:03:14.852Z,7.53
2018-07-10T02:03:46.077Z,7.00
2018-07-10T02:04:17.303Z,7.78
2018-07-10T02:04:48.757Z,7.53
2018-07-10T02:05:19.951Z,7.47
2018-07-10T02:05:51.194Z,7.53
2018-07-10T02:06:22.382Z,7.28
2018-07-10T02:06:53.600Z,7.37
2018-07-10T02:07:24.775Z,7.08
2018-07-10T02:07:55.944Z,7.30
2018-07-10T02:08:27.128Z,6.70
2018-07-10T02:08:58.353Z,7.90
2018-07-10T02:09:29.529Z,7.05
2018-07-10T02:10:00.712Z,7.40
2018-07-10T02:10:31.883Z,7.28
2018-07-10T02:11:03.099Z,7.40
2018-07-10T02:11:34.274Z,7.25
2018-07-10T02:12:05.444Z,7.22
2018-07-10T02:12:36.672Z,7.40
2018-07-10T02:13:07.905Z,7.03
2018-07-10T02:13:39.096Z,7.62
2018-07-10T02:14:10.348Z,6.95
2018-07-10T02:14:41.487Z,7.40
2018-07-10T02:15:12.713Z,7.92
2018-07-10T02:15:43.897Z,7.90
2018-07-10T02:16:15.179Z,7.45
2018-07-10T02:16:46.442Z,7.67
2018-07-10T02:17:17.680Z,6.92
2018-07-10T02:17:48.912Z,7.50
2018-07-10T02:18:20.097Z,7.65
2018-07-10T02:18:51.320Z,7.70
2018-07-10T02:19:22.549Z,7.85
2018-07-10T02:19:53.745Z,7.78
2018-07-10T02:20:24.986Z,6.87
2018-07-10T02:20:56.184Z,8.10
2018-07-10T02:21:27.396Z,7.78
2018-07-10T02:21:58.572Z,8.00
2018-07-10T02:22:29.744Z,7.95
2018-07-10T02:23:01.009Z,7.70
2018-07-10T02:23:32.200Z,7.47
2018-07-10T02:24:03.373Z,7.55
2018-07-10T02:24:34.604Z,7.42
2018-07-10T02:25:05.788Z,7.92
2018-07-10T02:25:36.965Z,8.05
2018-07-10T02:26:08.262Z,7.45
2018-07-10T02:26:39.448Z,8.03
2018-07-10T02:27:10.616Z,7.90
2018-07-10T02:27:41.850Z,8.25
2018-07-10T02:28:13.025Z,8.28
2018-07-10T02:28:44.196Z,8.03
2018-07-10T02:29:15.367Z,8.35
2018-07-10T02:29:46.598Z,9.10
2018-07-10T02:30:17.785Z,8.65
2018-07-10T02:30:48.954Z,8.83
2018-07-10T02:31:20.221Z,8.95
2018-07-10T02:31:51.458Z,9.28
2018-07-10T02:32:22.712Z,9.33
2018-07-10T02:32:54.488Z,9.08
2018-07-10T02:33:25.671Z,9.23
2018-07-10T02:33:56.876Z,7.67
2018-07-10T02:34:28.066Z,9.03
2018-07-10T02:34:59.270Z,9.05
2018-07-10T02:35:30.493Z,9.30
2018-07-10T02:36:01.673Z,8.75
2018-07-10T02:36:32.850Z,9.45
2018-07-10T02:37:04.091Z,9.10
2018-07-10T02:37:35.339Z,9.00
2018-07-10T02:38:06.581Z,9.38
2018-07-10T02:38:37.761Z,9.78
2018-07-10T02:39:08.976Z,9.40
2018-07-10T02:39:40.162Z,9.98
2018-07-10T02:40:11.335Z,9.08
2018-07-10T02:40:42.510Z,9.08
2018-07-10T02:41:13.989Z,9.38
2018-07-10T02:41:45.176Z,9.85
2018-07-10T02:42:16.969Z,9.13
2018-07-10T02:42:48.161Z,9.05
2018-07-10T02:43:19.384Z,9.15
2018-07-10T02:43:50.553Z,9.10
2018-07-10T02:44:21.744Z,9.10
2018-07-10T02:44:52.933Z,9.50
2018-07-10T02:45:24.116Z,9.33
2018-07-10T02:45:55.375Z,9.53
2018-07-10T02:46:26.564Z,9.35
2018-07-10T02:46:57.739Z,10.05
2018-07-10T02:47:28.912Z,9.85
2018-07-10T02:48:00.085Z,9.38
2018-07-10T02:48:31.307Z,9.88
2018-07-10T02:49:02.477Z,9.73
2018-07-10T02:49:33.737Z,10.48
2018-07-10T02:50:04.951Z,9.58
2018-07-10T02:50:36.173Z,9.60
2018-07-10T02:51:07.437Z,9.50
2018-07-10T02:51:38.631Z,10.50
2018-07-10T02:52:09.866Z,10.20
2018-07-10T02:52:41.072Z,9.53
2018-07-10T02:53:12.292Z,9.70
2018-07-10T02:53:43.514Z,10.18
2018-07-10T02:54:14.732Z,10.15
2018-07-10T02:54:45.935Z,10.43
2018-07-10T02:55:17.121Z,10.85
2018-07-10T02:55:48.349Z,10.38
2018-07-10T02:56:19.586Z,10.08
2018-07-10T02:56:50.877Z,10.90
2018-07-10T02:57:22.065Z,10.75
2018-07-10T02:57:53.249Z,10.45
2018-07-10T02:58:24.481Z,10.30
2018-07-10T02:58:56.906Z,10.50
2018-07-10T02:59:28.160Z,10.48
2018-07-10T02:59:59.344Z,10.18
2018-07-10T03:00:30.548Z,10.48
2018-07-10T03:01:01.725Z,11.08
2018-07-10T03:01:32.954Z,10.90
2018-07-10T03:02:04.198Z,10.63
2018-07-10T03:02:35.457Z,10.48
2018-07-10T03:03:06.704Z,10.08
2018-07-10T03:03:37.970Z,10.70
2018-07-10T03:04:09.215Z,10.78
2018-07-10T03:04:40.502Z,10.98
2018-07-10T03:05:11.709Z,10.82
2018-07-10T03:05:42.894Z,12.07
2018-07-10T03:06:14.082Z,11.63
2018-07-10T03:06:45.313Z,11.50
2018-07-10T03:07:16.904Z,11.45
2018-07-10T03:07:48.076Z,11.25
2018-07-10T03:08:19.248Z,12.28
2018-07-10T03:08:50.422Z,11.55
2018-07-10T03:09:21.596Z,11.18
2018-07-10T03:09:52.857Z,11.30
2018-07-10T03:10:24.043Z,11.20
2018-07-10T03:10:55.269Z,11.15
2018-07-10T03:11:26.497Z,10.75
2018-07-10T03:11:57.689Z,11.57
2018-07-10T03:12:28.864Z,11.35
2018-07-10T03:13:00.041Z,11.08
2018-07-10T03:13:31.236Z,11.78
2018-07-10T03:14:02.473Z,11.45
2018-07-10T03:14:33.669Z,11.50
2018-07-10T03:15:04.899Z,9.98
2018-07-10T03:15:36.077Z,11.97
2018-07-10T03:16:07.337Z,11.40
2018-07-10T03:16:38.594Z,11.20
2018-07-10T03:17:09.773Z,11.50
2018-07-10T03:17:40.955Z,11.78
2018-07-10T03:18:12.177Z,11.80
2018-07-10T03:18:43.433Z,11.63
2018-07-10T03:19:14.617Z,11.22
2018-07-10T03:19:45.792Z,11.73
2018-07-10T03:20:16.980Z,12.25
2018-07-10T03:20:48.153Z,11.55
2018-07-10T03:21:19.395Z,11.97
2018-07-10T03:21:50.631Z,11.93
2018-07-10T03:22:21.866Z,12.00
2018-07-10T03:22:53.109Z,11.60
2018-07-10T03:23:24.349Z,12.28
2018-07-10T03:23:55.578Z,12.33
2018-07-10T03:24:26.771Z,12.15
2018-07-10T03:24:58.553Z,12.25
2018-07-10T03:25:29.777Z,11.57
2018-07-10T03:26:01.049Z,12.45
2018-07-10T03:26:32.232Z,12.68
2018-07-10T03:27:03.440Z,12.63
2018-07-10T03:27:34.674Z,11.38
2018-07-10T03:28:05.909Z,13.05
2018-07-10T03:28:37.171Z,12.68
2018-07-10T03:29:08.425Z,11.35
2018-07-10T03:29:39.632Z,11.50
2018-07-10T03:30:10.876Z,11.78
2018-07-10T03:30:42.075Z,12.07
2018-07-10T03:31:13.353Z,11.10
2018-07-10T03:31:44.544Z,10.70
2018-07-10T03:32:15.776Z,11.18
2018-07-10T03:32:46.972Z,10.88
2018-07-10T03:33:18.159Z,10.88
2018-07-10T03:33:49.397Z,9.73
2018-07-10T03:34:20.666Z,10.00
2018-07-10T03:34:51.905Z,9.35
2018-07-10T03:35:23.173Z,9.78
2018-07-10T03:35:54.392Z,9.85
2018-07-10T03:36:25.662Z,9.75
2018-07-10T03:36:56.856Z,9.85
2018-07-10T03:37:28.052Z,9.78
2018-07-10T03:37:59.228Z,9.33
2018-07-10T03:38:30.465Z,10.20
2018-07-10T03:39:01.695Z,9.70
2018-07-10T03:39:32.957Z,9.80
2018-07-10T03:40:04.184Z,9.63
2018-07-10T03:40:35.377Z,10.08
2018-07-10T03:41:06.556Z,9.50
2018-07-10T03:41:37.788Z,10.08
2018-07-10T03:42:08.969Z,8.93
2018-07-10T03:42:40.148Z,9.40
2018-07-10T03:43:11.327Z,9.30
2018-07-10T03:43:42.515Z,9.23
2018-07-10T03:44:13.742Z,10.03
2018-07-10T03:44:44.932Z,9.10
2018-07-10T03:45:16.180Z,10.25
2018-07-10T03:45:47.388Z,10.30
2018-07-10T03:46:18.556Z,9.63
2018-07-10T03:46:49.797Z,9.60
2018-07-10T03:47:21.033Z,9.53
2018-07-10T03:47:52.232Z,10.30
2018-07-10T03:48:23.412Z,10.82
2018-07-10T03:48:54.593Z,10.35
2018-07-10T03:49:25.784Z,10.30
2018-07-10T03:49:56.973Z,10.90
2018-07-10T03:50:28.196Z,10.25
2018-07-10T03:50:59.372Z,10.45
2018-07-10T03:51:30.561Z,10.78
2018-07-10T03:52:04.546Z,10.65
2018-07-10T03:52:35.753Z,10.65
2018-07-10T03:53:07.551Z,10.98
2018-07-10T03:53:38.738Z,11.28
2018-07-10T03:54:09.973Z,11.15
2018-07-10T03:54:41.168Z,10.03
2018-07-10T03:55:12.346Z,10.15
2018-07-10T03:55:43.585Z,10.32
2018-07-10T03:56:14.777Z,10.32
2018-07-10T03:56:46.024Z,10.60
2018-07-10T03:57:17.261Z,10.80
2018-07-10T03:57:48.495Z,11.05
2018-07-10T03:58:19.680Z,10.75
2018-07-10T03:58:50.909Z,9.98
2018-07-10T03:59:22.100Z,9.83
2018-07-10T03:59:53.286Z,10.25
2018-07-10T04:00:24.481Z,9.58
2018-07-10T04:00:55.786Z,9.85
2018-07-10T04:01:27.044Z,10.20
2018-07-10T04:01:58.249Z,10.25
2018-07-10T04:02:30.181Z,9.95
2018-07-10T04:03:01.374Z,10.03
2018-07-10T04:03:32.630Z,9.48
2018-07-10T04:04:03.867Z,9.73
2018-07-10T04:04:35.057Z,9.48
2018-07-10T04:05:06.228Z,9.05
2018-07-10T04:05:37.457Z,9.80
2018-07-10T04:06:09.269Z,9.38
2018-07-10T04:06:40.512Z,8.83
2018-07-10T04:07:11.759Z,9.10
2018-07-10T04:07:43.064Z,9.95
2018-07-10T04:08:14.280Z,8.90
2018-07-10T04:08:45.456Z,8.28
2018-07-10T04:09:16.689Z,8.78
2018-07-10T04:09:47.925Z,8.53
2018-07-10T04:10:19.104Z,8.35
2018-07-10T04:10:50.386Z,8.28
2018-07-10T04:11:21.574Z,8.40
2018-07-10T04:11:52.781Z,8.05
2018-07-10T04:12:23.960Z,7.40
2018-07-10T04:12:55.181Z,7.53
2018-07-10T04:13:26.343Z,8.17
2018-07-10T04:13:57.520Z,8.13
2018-07-10T04:14:28.695Z,7.90
2018-07-10T04:14:59.940Z,8.37
2018-07-10T04:15:31.125Z,7.83
2018-07-10T04:16:02.323Z,7.40
2018-07-10T04:16:33.513Z,8.33
2018-07-10T04:17:04.716Z,8.57
2018-07-10T04:17:35.889Z,7.13
2018-07-10T04:18:07.100Z,7.70
2018-07-10T04:18:38.273Z,7.77
2018-07-10T04:19:09.493Z,7.60
2018-07-10T04:19:40.668Z,6.80
2018-07-10T04:20:11.876Z,7.73
2018-07-10T04:20:43.049Z,7.47
2018-07-10T04:21:14.224Z,7.53
2018-07-10T04:21:45.406Z,7.63
2018-07-10T04:22:16.591Z,7.30
2018-07-10T04:22:47.822Z,7.43
2018-07-10T04:23:19.003Z,7.57
2018-07-10T04:23:50.170Z,7.53
2018-07-10T04:24:21.465Z,7.57
2018-07-10T04:24:52.688Z,7.80
2018-07-10T04:25:23.865Z,7.67
2018-07-10T04:25:55.052Z,7.50
2018-07-10T04:26:26.232Z,7.53
2018-07-10T04:26:57.421Z,7.57
2018-07-10T04:27:28.592Z,7.83
2018-07-10T04:27:59.809Z,7.57
2018-07-10T04:28:30.996Z,7.40
2018-07-10T04:29:02.255Z,7.50
2018-07-10T04:29:33.537Z,7.63
2018-07-10T04:30:04.758Z,6.83
2018-07-10T04:30:35.936Z,6.90
2018-07-10T04:31:07.107Z,7.07
2018-07-10T04:31:38.345Z,7.20
2018-07-10T04:32:09.578Z,7.67
2018-07-10T04:32:40.849Z,7.13
2018-07-10T04:33:12.073Z,7.37
2018-07-10T04:33:43.297Z,7.10
2018-07-10T04:34:14.520Z,7.20
2018-07-10T04:34:45.688Z,6.33
2018-07-10T04:35:16.944Z,7.40
2018-07-10T04:35:48.208Z,7.03
2018-07-10T04:36:19.382Z,6.80
2018-07-10T04:36:50.554Z,6.83
2018-07-10T04:37:21.724Z,6.83
2018-07-10T04:37:52.897Z,7.07
2018-07-10T04:38:24.074Z,7.03
2018-07-10T04:38:55.259Z,7.17
2018-07-10T04:39:26.447Z,7.23
2018-07-10T04:39:57.659Z,6.53
2018-07-10T04:40:28.873Z,6.73
2018-07-10T04:41:00.089Z,6.50
2018-07-10T04:41:31.260Z,6.47
2018-07-10T04:42:02.489Z,6.43
2018-07-10T04:42:33.676Z,6.43
2018-07-10T04:43:04.898Z,6.27
2018-07-10T04:43:36.074Z,6.23
2018-07-10T04:44:07.302Z,7.03
2018-07-10T04:44:38.488Z,6.90
2018-07-10T04:45:09.664Z,7.13
2018-07-10T04:45:40.873Z,7.27
2018-07-10T04:46:12.062Z,6.43
2018-07-10T04:46:43.290Z,6.60
2018-07-10T04:47:14.581Z,6.90
2018-07-10T04:47:45.809Z,6.80
2018-07-10T04:48:16.988Z,7.30
2018-07-10T04:48:48.158Z,7.37
2018-07-10T04:49:19.456Z,7.47
2018-07-10T04:49:50.623Z,6.80
2018-07-10T04:50:21.800Z,6.73
2018-07-10T04:50:53.023Z,7.40
2018-07-10T04:51:24.280Z,7.30
2018-07-10T04:51:55.533Z,7.07
2018-07-10T04:52:26.714Z,7.80
2018-07-10T04:52:57.881Z,7.57
2018-07-10T04:53:29.054Z,7.07
2018-07-10T04:54:00.225Z,7.23
2018-07-10T04:54:31.407Z,7.43
2018-07-10T04:55:02.633Z,8.13
2018-07-10T04:55:33.894Z,7.43
2018-07-10T04:56:05.113Z,7.40
2018-07-10T04:56:36.299Z,6.93
2018-07-10T04:57:07.460Z,7.73
2018-07-10T04:57:38.734Z,7.93
2018-07-10T04:58:09.900Z,8.13
2018-07-10T04:58:41.117Z,7.47
2018-07-10T04:59:12.349Z,7.10
2018-07-10T04:59:43.525Z,7.90
2018-07-10T05:00:14.697Z,8.20
2018-07-10T05:00:45.873Z,7.97
2018-07-10T05:01:17.085Z,7.70
2018-07-10T05:01:48.375Z,7.13
2018-07-10T05:02:19.567Z,7.67
2018-07-10T05:02:50.788Z,7.33
2018-07-10T05:03:22.009Z,7.60
2018-07-10T05:03:53.254Z,7.80
2018-07-10T05:04:27.232Z,7.67
2018-07-10T05:04:58.424Z,7.30
2018-07-10T05:05:29.641Z,7.07
2018-07-10T05:06:00.857Z,7.03
2018-07-10T05:06:32.033Z,7.27
2018-07-10T05:07:03.218Z,7.30
2018-07-10T05:07:34.446Z,7.13
2018-07-10T05:08:05.633Z,7.07
2018-07-10T05:08:36.852Z,7.07
2018-07-10T05:09:08.034Z,7.67
2018-07-10T05:09:39.246Z,7.60
2018-07-10T05:10:10.456Z,7.47
2018-07-10T05:10:41.634Z,8.13
2018-07-10T05:11:12.900Z,7.27
2018-07-10T05:11:44.131Z,6.77
2018-07-10T05:12:15.657Z,6.63
2018-07-10T05:12:46.898Z,6.63
2018-07-10T05:13:18.075Z,6.90
2018-07-10T05:13:49.254Z,6.43
2018-07-10T05:14:20.482Z,6.80
2018-07-10T05:14:51.700Z,6.90
2018-07-10T05:15:22.887Z,7.37
2018-07-10T05:15:54.063Z,6.57
2018-07-10T05:16:25.253Z,6.77
2018-07-10T05:16:56.425Z,6.80
2018-07-10T05:17:27.684Z,6.40
2018-07-10T05:17:58.869Z,6.47
2018-07-10T05:18:30.098Z,6.40
2018-07-10T05:19:01.286Z,7.00
2018-07-10T05:19:32.548Z,6.80
2018-07-10T05:20:03.745Z,6.87
2018-07-10T05:20:34.978Z,7.00
2018-07-10T05:21:06.221Z,6.80
2018-07-10T05:21:37.417Z,7.33
2018-07-10T05:22:08.620Z,7.13
2018-07-10T05:22:39.850Z,6.83
2018-07-10T05:23:11.081Z,7.10
2018-07-10T05:23:42.341Z,7.10
2018-07-10T05:24:13.516Z,6.87
2018-07-10T05:24:44.702Z,6.97
2018-07-10T05:25:16.888Z,6.93
2018-07-10T05:25:48.068Z,6.93
2018-07-10T05:26:19.308Z,7.27
2018-07-10T05:26:50.531Z,7.37
2018-07-10T05:27:21.721Z,6.43
2018-07-10T05:27:52.913Z,7.07
2018-07-10T05:28:24.093Z,7.03
2018-07-10T05:28:55.347Z,6.27
2018-07-10T05:29:26.613Z,6.17
2018-07-10T05:29:57.801Z,6.70
2018-07-10T05:30:28.982Z,6.73
2018-07-10T05:31:00.168Z,6.50
2018-07-10T05:31:31.400Z,6.13
2018-07-10T05:32:02.616Z,6.10
2018-07-10T05:32:33.846Z,6.80
2018-07-10T05:33:05.038Z,6.63
2018-07-10T05:33:36.227Z,6.57
2018-07-10T05:34:07.466Z,6.60
2018-07-10T05:34:38.721Z,6.30
2018-07-10T05:35:09.905Z,6.20
2018-07-10T05:35:41.669Z,6.50
2018-07-10T05:36:13.676Z,7.10
2018-07-10T05:36:44.907Z,6.67
2018-07-10T05:37:16.167Z,6.50
2018-07-10T05:37:47.311Z,6.13
2018-07-10T05:38:18.634Z,6.37
2018-07-10T05:38:49.904Z,6.97
2018-07-10T05:39:21.162Z,6.73
2018-07-10T05:39:52.366Z,6.07
2018-07-10T05:40:23.547Z,6.70
2018-07-10T05:40:54.719Z,6.77
2018-07-10T05:41:25.896Z,6.83
2018-07-10T05:41:57.185Z,6.80
2018-07-10T05:42:28.597Z,6.80
2018-07-10T05:42:59.847Z,6.23
2018-07-10T05:43:31.052Z,6.40
2018-07-10T05:44:02.241Z,7.17
2018-07-10T05:44:33.416Z,7.00
2018-07-10T05:45:04.638Z,6.50
2018-07-10T05:45:35.916Z,6.47
2018-07-10T05:46:07.141Z,6.10
2018-07-10T05:46:38.376Z,6.60
2018-07-10T05:47:09.589Z,6.50
2018-07-10T05:47:40.876Z,6.70
2018-07-10T05:48:12.124Z,6.23
2018-07-10T05:48:43.390Z,6.30
2018-07-10T05:49:14.616Z,6.27
2018-07-10T05:49:45.880Z,6.57
2018-07-10T05:50:17.085Z,6.60
2018-07-10T05:50:48.888Z,6.07
2018-07-10T05:51:20.956Z,5.93
2018-07-10T05:51:52.305Z,6.33
2018-07-10T05:52:23.497Z,6.23
2018-07-10T05:52:54.799Z,5.07
2018-07-10T05:53:25.979Z,6.13
2018-07-10T05:53:57.244Z,5.03
2018-07-10T05:54:28.465Z,5.50
2018-07-10T05:55:00.295Z,5.33
2018-07-10T05:55:31.529Z,5.07
2018-07-10T05:56:02.778Z,4.43
2018-07-10T05:56:34.040Z,5.40
2018-07-10T05:57:05.276Z,5.10
2018-07-10T05:57:36.523Z,4.73
2018-07-10T05:58:08.706Z,5.00
2018-07-10T05:58:39.975Z,4.50
2018-07-10T05:59:11.852Z,4.60
2018-07-10T05:59:43.108Z,4.50
2018-07-10T06:00:14.401Z,4.30
2018-07-10T06:00:45.608Z,4.47
2018-07-10T06:01:16.801Z,4.57
2018-07-10T06:01:48.026Z,4.30
2018-07-10T06:02:19.242Z,4.57
2018-07-10T06:02:50.477Z,4.70
2018-07-10T06:03:21.736Z,4.80
2018-07-10T06:03:52.932Z,4.73
2018-07-10T06:04:24.108Z,5.00
2018-07-10T06:04:55.294Z,4.70
2018-07-10T06:05:26.472Z,5.10
2018-07-10T06:05:57.678Z,4.83
2018-07-10T06:06:28.926Z,4.60
2018-07-10T06:07:00.157Z,4.63
2018-07-10T06:07:31.390Z,4.63
2018-07-10T06:08:02.581Z,5.17
2018-07-10T06:08:33.821Z,4.73
2018-07-10T06:09:05.054Z,4.80
2018-07-10T06:09:36.288Z,4.70
2018-07-10T06:10:07.504Z,4.93
2018-07-10T06:10:38.694Z,4.87
2018-07-10T06:11:09.913Z,4.67
2018-07-10T06:11:41.186Z,4.97
2018-07-10T06:12:13.069Z,4.97
2018-07-10T06:12:44.274Z,4.90
2018-07-10T06:13:15.510Z,4.97
2018-07-10T06:13:46.704Z,5.50
2018-07-10T06:14:17.880Z,5.70
2018-07-10T06:14:49.110Z,5.30
2018-07-10T06:15:20.308Z,5.53
2018-07-10T06:15:51.497Z,6.03
2018-07-10T06:16:22.779Z,5.97
2018-07-10T06:16:54.045Z,5.77
2018-07-10T06:17:25.241Z,6.13
2018-07-10T06:17:56.420Z,5.80
2018-07-10T06:18:27.627Z,6.07
2018-07-10T06:18:58.809Z,5.00
2018-07-10T06:19:30.139Z,5.33
2018-07-10T06:20:01.386Z,5.00
2018-07-10T06:20:32.575Z,5.57
2018-07-10T06:21:04.784Z,5.20
2018-07-10T06:21:36.046Z,5.57
2018-07-10T06:22:07.272Z,4.40
2018-07-10T06:22:38.506Z,4.90
2018-07-10T06:23:09.689Z,4.97
2018-07-10T06:23:40.867Z,4.03
2018-07-10T06:24:12.052Z,4.77
2018-07-10T06:24:43.236Z,4.43
2018-07-10T06:25:14.486Z,5.07
2018-07-10T06:25:45.710Z,4.70
2018-07-10T06:26:16.895Z,4.00
2018-07-10T06:26:48.162Z,4.13
2018-07-10T06:27:19.354Z,4.20
2018-07-10T06:27:50.533Z,4.10
2018-07-10T06:28:21.752Z,4.30
2018-07-10T06:28:52.928Z,4.17
2018-07-10T06:29:24.118Z,4.10
2018-07-10T06:29:55.313Z,4.47
2018-07-10T06:30:26.612Z,4.73
2018-07-10T06:30:57.782Z,4.00
2018-07-10T06:31:28.998Z,4.50
2018-07-10T06:32:00.230Z,4.40
2018-07-10T06:32:31.491Z,4.47
2018-07-10T06:33:02.680Z,4.93
2018-07-10T06:33:33.904Z,4.50
2018-07-10T06:34:05.093Z,4.10
2018-07-10T06:34:36.268Z,4.03
2018-07-10T06:35:07.485Z,3.63
2018-07-10T06:35:39.759Z,4.40
2018-07-10T06:36:10.998Z,4.43
2018-07-10T06:36:42.287Z,4.00
2018-07-10T06:37:13.489Z,3.93
2018-07-10T06:37:44.669Z,3.97
2018-07-10T06:38:15.848Z,4.07
2018-07-10T06:38:47.592Z,4.13
2018-07-10T06:39:18.823Z,4.17
2018-07-10T06:39:50.080Z,3.93
2018-07-10T06:40:21.257Z,3.93
2018-07-10T06:40:52.437Z,4.70
2018-07-10T06:41:23.725Z,4.60
2018-07-10T06:41:54.928Z,4.03
2018-07-10T06:42:26.113Z,4.43
2018-07-10T06:42:57.297Z,4.07
2018-07-10T06:43:28.476Z,4.63
2018-07-10T06:43:59.656Z,4.33
2018-07-10T06:44:30.836Z,3.90
2018-07-10T06:45:02.071Z,3.90
2018-07-10T06:45:33.276Z,4.37
2018-07-10T06:46:04.470Z,4.00
2018-07-10T06:46:35.725Z,3.83
2018-07-10T06:47:06.916Z,3.90
2018-07-10T06:47:38.088Z,3.83
2018-07-10T06:48:09.363Z,3.97
2018-07-10T06:48:40.680Z,3.50
2018-07-10T06:49:12.274Z,3.93
2018-07-10T06:49:43.514Z,4.53
2018-07-10T06:50:14.715Z,3.70
2018-07-10T06:50:45.957Z,3.80
2018-07-10T06:51:17.201Z,3.67